ADDS METAR Data INFO
IDs: Format: Raw Decoded Include TAF

Data at: 0923 UTC 13 Dec 2017

KU68 130915Z AUTO 32008KT 10SM CLR 05/M13 A3018 RMK AO2
KU68 130855Z AUTO 34011KT 10SM SCT110 06/M13 A3017 RMK AO2
KU68 130835Z AUTO 34008KT 10SM OVC110 07/M13 A3018 RMK AO2
KU68 130815Z AUTO 35013G21KT 10SM OVC110 09/M13 A3017 RMK AO2
KU68 130755Z AUTO 35012G17KT 10SM SCT090 OVC110 09/M12 A3017 RMK AO2
KU68 130735Z AUTO 35011G20KT 10SM SCT090 OVC110 10/M12 A3017 RMK AO2
KU68 130715Z AUTO 35012KT 10SM SCT110 09/M13 A3016 RMK AO2
KU68 130655Z AUTO 31012G16KT 10SM CLR 06/M14 A3016 RMK AO2
KU68 130635Z AUTO 32010KT 10SM SCT110 03/M12 A3015 RMK AO2
KU68 130615Z AUTO 31012KT 10SM OVC110 03/M12 A3015 RMK AO2
KU68 130555Z AUTO 29010KT 10SM OVC110 01/M11 A3015 RMK AO2
KU68 130535Z AUTO 28006KT 10SM BKN110 00/M10 A3015 RMK AO2
KU68 130515Z AUTO 36006KT 10SM BKN110 M01/M09 A3014 RMK AO2
KU68 130455Z AUTO 00000KT 10SM SCT110 M01/M09 A3015 RMK AO2
KU68 130435Z AUTO 00000KT 10SM OVC110 00/M09 A3013 RMK AO2
KU68 130415Z AUTO 35004KT 10SM OVC110 M01/M09 A3013 RMK AO2
KU68 130355Z AUTO 00000KT 10SM OVC110 M01/M10 A3013 RMK AO2
KU68 130335Z AUTO 22005KT 10SM OVC120 M01/M10 A3013 RMK AO2
KU68 130315Z AUTO 24006KT 10SM OVC120 M01/M10 A3015 RMK AO2
KU68 130255Z AUTO 36003KT 10SM SCT120 M02/M11 A3014 RMK AO2
KU68 130235Z AUTO 09003KT 10SM CLR 00/M11 A3015 RMK AO2
KU68 130215Z AUTO 32007KT 10SM CLR 00/M11 A3015 RMK AO2
KU68 130155Z AUTO 30007KT 10SM CLR 00/M11 A3015 RMK AO2
KU68 130135Z AUTO 30007KT 10SM CLR M01/M11 A3015 RMK AO2
KU68 130115Z AUTO 28004KT 10SM CLR M01/M11 A3016 RMK AO2
KU68 130055Z AUTO 26004KT 10SM CLR 00/M11 A3015 RMK AO2
KU68 130035Z AUTO 00000KT 10SM CLR 02/M11 A3015 RMK AO2
KU68 130015Z AUTO 08003KT 10SM CLR 02/M11 A3014 RMK AO2
KU68 122355Z AUTO 06003KT 10SM CLR 04/M11 A3015 RMK AO2
KU68 122335Z AUTO 00000KT 10SM CLR 05/M11 A3015 RMK AO2
KU68 122315Z AUTO 03004KT 10SM CLR 05/M11 A3015 RMK AO2
KU68 122255Z AUTO 07005KT 10SM CLR 06/M11 A3015 RMK AO2
KU68 122235Z AUTO 06007KT 10SM CLR 06/M10 A3015 RMK AO2
KU68 122215Z AUTO 09004KT 10SM CLR 07/M10 A3015 RMK AO2
KU68 122155Z AUTO 08005KT 10SM CLR 08/M10 A3015 RMK AO2
KU68 122135Z AUTO 07007KT 10SM CLR 07/M10 A3016 RMK AO2
KU68 122115Z AUTO 10004KT 10SM CLR 07/M10 A3017 RMK AO2
KU68 122055Z AUTO 11004KT 10SM CLR 07/M10 A3019 RMK AO2
KU68 122035Z AUTO 00000KT 10SM CLR 06/M10 A3020 RMK AO2
KU68 122015Z AUTO 00000KT 10SM CLR 06/M10 A3021 RMK AO2
KU68 121955Z AUTO 09003KT 10SM CLR 06/M10 A3023 RMK AO2
KU68 121935Z AUTO 08004KT 10SM CLR 05/M09 A3025 RMK AO2
KU68 121915Z AUTO 00000KT 10SM CLR 03/M10 A3026 RMK AO2
KU68 121855Z AUTO 00000KT 10SM CLR 03/M09 A3027 RMK AO2
KU68 121835Z AUTO 00000KT 10SM CLR 02/M09 A3029 RMK AO2
KU68 121815Z AUTO 13003KT 10SM CLR 02/M08 A3030 RMK AO2
KU68 121755Z AUTO 00000KT 10SM CLR 01/M09 A3031 RMK AO2
KU68 121735Z AUTO 00000KT 10SM CLR 00/M08 A3033 RMK AO2
KU68 121715Z AUTO 00000KT 10SM CLR M01/M09 A3034 RMK AO2
KU68 121655Z AUTO 00000KT 10SM CLR M02/M10 A3034 RMK AO2
KU68 121635Z AUTO 00000KT 10SM CLR M03/M10 A3034 RMK AO2
KU68 121615Z AUTO 00000KT 10SM CLR M04/M10 A3034 RMK AO2
KU68 121555Z AUTO 00000KT 10SM CLR M05/M10 A3034 RMK AO2
KU68 121535Z AUTO 00000KT 10SM CLR M06/M11 A3034 RMK AO2
KU68 121515Z AUTO 00000KT 10SM CLR M07/M12 A3034 RMK AO2
KU68 121455Z AUTO 00000KT 10SM CLR M07/M12 A3034 RMK AO2
KU68 121435Z AUTO 06004KT 10SM CLR M08/M13 A3034 RMK AO2
KU68 121415Z AUTO 04004KT 10SM CLR M07/M12 A3035 RMK AO2
KU68 121355Z AUTO 00000KT 10SM CLR M07/M12 A3035 RMK AO2
KU68 121335Z AUTO 00000KT 10SM CLR M06/M11 A3035 RMK AO2
KU68 121315Z AUTO 00000KT 10SM CLR M08/M12 A3036 RMK AO2
KU68 121255Z AUTO 08003KT 10SM CLR M07/M12 A3036 RMK AO2
KU68 121235Z AUTO 00000KT 10SM CLR M05/M11 A3036 RMK AO2
KU68 121215Z AUTO 09004KT 10SM CLR M06/M11 A3037 RMK AO2
KU68 121155Z AUTO 05005KT 10SM CLR M07/M12 A3037 RMK AO2
KU68 121135Z AUTO 00000KT 10SM CLR M06/M11 A3037 RMK AO2
KU68 121115Z AUTO 00000KT 10SM CLR M06/M11 A3038 RMK AO2
KU68 121055Z AUTO 00000KT 10SM CLR M06/M12 A3039 RMK AO2
KU68 121035Z AUTO 00000KT 10SM CLR M06/M11 A3039 RMK AO2
KU68 121015Z AUTO 00000KT 10SM CLR M05/M11 A3040 RMK AO2
KU68 120955Z AUTO 00000KT 10SM CLR M05/M11 A3041 RMK AO2
KU68 120935Z AUTO 00000KT 10SM CLR M06/M11 A3041 RMK AO2
KU68 120915Z AUTO 00000KT 10SM CLR M07/M12 A3041 RMK AO2
KU68 120855Z AUTO 00000KT 10SM CLR M07/M12 A3041 RMK AO2
KU68 120835Z AUTO 00000KT 10SM CLR M05/M11 A3041 RMK AO2
KU68 120815Z AUTO 00000KT 10SM CLR M05/M11 A3041 RMK AO2
KU68 120755Z AUTO 00000KT 10SM CLR M04/M11 A3042 RMK AO2
KU68 120735Z AUTO 00000KT 10SM CLR M05/M12 A3042 RMK AO2
KU68 120715Z AUTO 00000KT 10SM CLR M06/M12 A3042 RMK AO2
KU68 120655Z AUTO 00000KT 10SM CLR M06/M12 A3042 RMK AO2
KU68 120635Z AUTO 00000KT 10SM CLR M05/M12 A3043 RMK AO2
KU68 120615Z AUTO 00000KT 10SM CLR M06/M12 A3043 RMK AO2
KU68 120555Z AUTO 00000KT 10SM CLR M05/M12 A3043 RMK AO2
KU68 120535Z AUTO 00000KT 10SM CLR M05/M12 A3043 RMK AO2
KU68 120515Z AUTO 00000KT 10SM CLR M03/M11 A3043 RMK AO2
KU68 120455Z AUTO 04003KT 10SM CLR M04/M11 A3043 RMK AO2
KU68 120435Z AUTO 04005KT 10SM CLR M03/M12 A3043 RMK AO2
KU68 120415Z AUTO 03003KT 10SM CLR M03/M11 A3044 RMK AO2
KU68 120355Z AUTO 32003KT 10SM CLR M04/M11 A3044 RMK AO2
KU68 120335Z AUTO 27003KT 10SM CLR M04/M12 A3044 RMK AO2
KU68 120315Z AUTO 25004KT 10SM CLR M04/M11 A3044 RMK AO2
KU68 120255Z AUTO 00000KT 10SM CLR M03/M12 A3044 RMK AO2
KU68 120235Z AUTO 00000KT 10SM CLR M03/M11 A3044 RMK AO2
KU68 120215Z AUTO 00000KT 10SM CLR M04/M12 A3044 RMK AO2
KU68 120155Z AUTO 00000KT 10SM CLR M03/M12 A3044 RMK AO2
KU68 120135Z AUTO 03003KT 10SM CLR M01/M12 A3044 RMK AO2
KU68 120115Z AUTO 04003KT 10SM CLR M02/M11 A3043 RMK AO2
KU68 120055Z AUTO 03005KT 10SM CLR M01/M11 A3043 RMK AO2
KU68 120035Z AUTO 04005KT 10SM CLR M01/M11 A3044 RMK AO2
KU68 120015Z AUTO 02007KT 10SM CLR M01/M11 A3043 RMK AO2
KU68 112355Z AUTO 01004KT 10SM CLR 00/M11 A3043 RMK AO2
KU68 112335Z AUTO 00000KT 10SM CLR 00/M10 A3043 RMK AO2
KU68 112315Z AUTO 00000KT 10SM CLR 01/M11 A3043 RMK AO2
KU68 112255Z AUTO 11003KT 10SM CLR 02/M11 A3042 RMK AO2
KU68 112235Z AUTO 08003KT 10SM CLR 02/M10 A3043 RMK AO2
KU68 112215Z AUTO 08007KT 10SM CLR 03/M11 A3042 RMK AO2
KU68 112155Z AUTO 08006KT 10SM CLR 04/M10 A3042 RMK AO2
KU68 112135Z AUTO 00000KT 10SM CLR 03/M11 A3042 RMK AO2